sensor_id;sensor_type;location;lat;lon;timestamp;temperature;humidity
7502;DHT22;3792;47.740;7.606;2023-09-19T00:01:39;18.90;99.90
7502;DHT22;3792;47.740;7.606;2023-09-19T00:04:08;18.80;99.90
7502;DHT22;3792;47.740;7.606;2023-09-19T00:06:35;18.70;99.90
7502;DHT22;3792;47.740;7.606;2023-09-19T00:09:03;18.70;99.90
7502;DHT22;3792;47.740;7.606;2023-09-19T00:11:30;18.70;99.90
7502;DHT22;3792;47.740;7.606;2023-09-19T00:13:57;18.70;99.90
7502;DHT22;3792;47.740;7.606;2023-09-19T00:16:26;18.70;99.90
7502;DHT22;3792;47.740;7.606;2023-09-19T00:18:53;18.80;99.90
7502;DHT22;3792;47.740;7.606;2023-09-19T00:21:22;18.90;99.90
7502;DHT22;3792;47.740;7.606;2023-09-19T00:23:49;18.80;99.90
7502;DHT22;3792;47.740;7.606;2023-09-19T00:26:17;18.70;99.90
7502;DHT22;3792;47.740;7.606;2023-09-19T00:28:46;18.70;99.90
7502;DHT22;3792;47.740;7.606;2023-09-19T00:31:13;18.70;99.90
7502;DHT22;3792;47.740;7.606;2023-09-19T00:33:40;18.60;99.90
7502;DHT22;3792;47.740;7.606;2023-09-19T00:36:08;18.60;99.90
7502;DHT22;3792;47.740;7.606;2023-09-19T00:38:36;18.50;99.90
7502;DHT22;3792;47.740;7.606;2023-09-19T00:41:03;18.40;99.90
7502;DHT22;3792;47.740;7.606;2023-09-19T00:43:31;18.40;99.90
7502;DHT22;3792;47.740;7.606;2023-09-19T00:46:00;18.30;99.90
7502;DHT22;3792;47.740;7.606;2023-09-19T00:48:29;18.40;99.90
7502;DHT22;3792;47.740;7.606;2023-09-19T00:50:57;18.40;99.90
7502;DHT22;3792;47.740;7.606;2023-09-19T00:53:26;18.40;99.90
7502;DHT22;3792;47.740;7.606;2023-09-19T00:55:54;18.40;99.90
7502;DHT22;3792;47.740;7.606;2023-09-19T00:58:22;18.40;99.90
7502;DHT22;3792;47.740;7.606;2023-09-19T01:00:50;18.50;99.90
7502;DHT22;3792;47.740;7.606;2023-09-19T01:03:19;18.50;99.90
7502;DHT22;3792;47.740;7.606;2023-09-19T01:05:47;18.50;99.90
7502;DHT22;3792;47.740;7.606;2023-09-19T01:08:14;18.50;99.90
7502;DHT22;3792;47.740;7.606;2023-09-19T01:10:55;18.50;99.90
7502;DHT22;3792;47.740;7.606;2023-09-19T01:13:31;18.50;99.90
7502;DHT22;3792;47.740;7.606;2023-09-19T01:16:06;18.60;99.90
7502;DHT22;3792;47.740;7.606;2023-09-19T01:18:45;18.60;99.90
7502;DHT22;3792;47.740;7.606;2023-09-19T01:21:18;18.50;99.90
7502;DHT22;3792;47.740;7.606;2023-09-19T01:24:13;18.50;99.90
7502;DHT22;3792;47.740;7.606;2023-09-19T01:27:03;18.50;99.90
7502;DHT22;3792;47.740;7.606;2023-09-19T01:29:38;18.50;99.90
7502;DHT22;3792;47.740;7.606;2023-09-19T01:32:08;18.50;99.90
7502;DHT22;3792;47.740;7.606;2023-09-19T01:34:46;18.50;99.90
7502;DHT22;3792;47.740;7.606;2023-09-19T01:37:14;18.50;99.90
7502;DHT22;3792;47.740;7.606;2023-09-19T01:39:46;18.50;99.90
7502;DHT22;3792;47.740;7.606;2023-09-19T01:42:24;18.50;99.90
7502;DHT22;3792;47.740;7.606;2023-09-19T01:45:03;18.60;99.90
7502;DHT22;3792;47.740;7.606;2023-09-19T01:47:35;18.60;99.90
7502;DHT22;3792;47.740;7.606;2023-09-19T01:50:12;18.60;99.90
7502;DHT22;3792;47.740;7.606;2023-09-19T01:52:47;18.70;99.90
7502;DHT22;3792;47.740;7.606;2023-09-19T01:55:16;18.70;99.90
7502;DHT22;3792;47.740;7.606;2023-09-19T01:57:49;18.70;99.90
7502;DHT22;3792;47.740;7.606;2023-09-19T02:00:20;18.80;99.90
7502;DHT22;3792;47.740;7.606;2023-09-19T02:02:52;18.80;99.90
7502;DHT22;3792;47.740;7.606;2023-09-19T02:05:25;18.90;99.90
7502;DHT22;3792;47.740;7.606;2023-09-19T02:07:53;18.90;99.90
7502;DHT22;3792;47.740;7.606;2023-09-19T02:10:21;19.00;99.90
7502;DHT22;3792;47.740;7.606;2023-09-19T02:12:49;19.00;99.90
7502;DHT22;3792;47.740;7.606;2023-09-19T02:15:16;19.00;99.90
7502;DHT22;3792;47.740;7.606;2023-09-19T02:17:44;18.70;99.90
7502;DHT22;3792;47.740;7.606;2023-09-19T02:20:13;18.60;99.90
7502;DHT22;3792;47.740;7.606;2023-09-19T02:22:41;18.50;99.90
7502;DHT22;3792;47.740;7.606;2023-09-19T02:25:08;18.40;99.90
7502;DHT22;3792;47.740;7.606;2023-09-19T02:27:35;18.20;99.90
7502;DHT22;3792;47.740;7.606;2023-09-19T02:30:04;18.10;99.90
7502;DHT22;3792;47.740;7.606;2023-09-19T02:32:31;18.00;99.90
7502;DHT22;3792;47.740;7.606;2023-09-19T02:35:03;17.90;99.90
7502;DHT22;3792;47.740;7.606;2023-09-19T02:37:32;17.90;99.90
7502;DHT22;3792;47.740;7.606;2023-09-19T02:40:00;17.80;99.90
7502;DHT22;3792;47.740;7.606;2023-09-19T02:42:44;17.90;99.90
7502;DHT22;3792;47.740;7.606;2023-09-19T02:45:15;17.90;99.90
7502;DHT22;3792;47.740;7.606;2023-09-19T02:47:43;17.80;99.90
7502;DHT22;3792;47.740;7.606;2023-09-19T02:50:11;17.90;99.90
7502;DHT22;3792;47.740;7.606;2023-09-19T02:52:42;17.80;99.90
7502;DHT22;3792;47.740;7.606;2023-09-19T02:55:10;17.70;99.90
7502;DHT22;3792;47.740;7.606;2023-09-19T02:57:37;17.80;99.90
7502;DHT22;3792;47.740;7.606;2023-09-19T03:00:07;17.80;99.90
7502;DHT22;3792;47.740;7.606;2023-09-19T03:02:36;17.90;99.90
7502;DHT22;3792;47.740;7.606;2023-09-19T03:05:04;18.00;99.90
7502;DHT22;3792;47.740;7.606;2023-09-19T03:07:32;18.10;99.90
7502;DHT22;3792;47.740;7.606;2023-09-19T03:10:00;18.30;99.90
7502;DHT22;3792;47.740;7.606;2023-09-19T03:12:29;18.30;99.90
7502;DHT22;3792;47.740;7.606;2023-09-19T03:14:56;18.20;99.90
7502;DHT22;3792;47.740;7.606;2023-09-19T03:17:23;18.30;99.90
7502;DHT22;3792;47.740;7.606;2023-09-19T03:19:50;18.30;99.90
7502;DHT22;3792;47.740;7.606;2023-09-19T03:22:17;18.40;99.90
7502;DHT22;3792;47.740;7.606;2023-09-19T03:24:44;18.40;99.90
7502;DHT22;3792;47.740;7.606;2023-09-19T03:27:13;18.40;99.90
7502;DHT22;3792;47.740;7.606;2023-09-19T03:29:41;18.50;99.90
7502;DHT22;3792;47.740;7.606;2023-09-19T03:32:09;18.60;99.90
7502;DHT22;3792;47.740;7.606;2023-09-19T03:34:37;18.60;99.90
7502;DHT22;3792;47.740;7.606;2023-09-19T03:37:08;18.60;99.90
7502;DHT22;3792;47.740;7.606;2023-09-19T03:39:35;18.60;99.90
7502;DHT22;3792;47.740;7.606;2023-09-19T03:42:03;18.60;99.90
7502;DHT22;3792;47.740;7.606;2023-09-19T03:44:34;18.60;99.90
7502;DHT22;3792;47.740;7.606;2023-09-19T03:47:01;18.70;99.90
7502;DHT22;3792;47.740;7.606;2023-09-19T03:49:30;18.60;99.90
7502;DHT22;3792;47.740;7.606;2023-09-19T03:51:57;18.60;99.90
7502;DHT22;3792;47.740;7.606;2023-09-19T03:54:24;18.60;99.90
7502;DHT22;3792;47.740;7.606;2023-09-19T03:56:51;18.60;99.90
7502;DHT22;3792;47.740;7.606;2023-09-19T03:59:18;18.60;99.90
7502;DHT22;3792;47.740;7.606;2023-09-19T04:01:47;18.60;99.90
7502;DHT22;3792;47.740;7.606;2023-09-19T04:04:15;18.70;99.90
7502;DHT22;3792;47.740;7.606;2023-09-19T04:06:44;18.70;99.90
7502;DHT22;3792;47.740;7.606;2023-09-19T04:09:11;18.70;99.90
7502;DHT22;3792;47.740;7.606;2023-09-19T04:11:48;18.70;99.90
7502;DHT22;3792;47.740;7.606;2023-09-19T04:14:16;18.70;99.90
7502;DHT22;3792;47.740;7.606;2023-09-19T04:16:51;18.70;99.90
7502;DHT22;3792;47.740;7.606;2023-09-19T04:19:19;18.80;99.90
7502;DHT22;3792;47.740;7.606;2023-09-19T04:21:47;18.80;99.90
7502;DHT22;3792;47.740;7.606;2023-09-19T04:24:14;18.80;99.90
7502;DHT22;3792;47.740;7.606;2023-09-19T04:26:41;18.80;99.90
7502;DHT22;3792;47.740;7.606;2023-09-19T04:29:09;18.80;99.90
7502;DHT22;3792;47.740;7.606;2023-09-19T04:31:36;18.80;99.90
7502;DHT22;3792;47.740;7.606;2023-09-19T04:34:07;18.80;99.90
7502;DHT22;3792;47.740;7.606;2023-09-19T04:36:34;18.70;99.90
7502;DHT22;3792;47.740;7.606;2023-09-19T04:39:02;18.60;99.90
7502;DHT22;3792;47.740;7.606;2023-09-19T04:41:33;18.50;99.90
7502;DHT22;3792;47.740;7.606;2023-09-19T04:44:00;18.40;99.90
7502;DHT22;3792;47.740;7.606;2023-09-19T04:46:27;18.20;99.90
7502;DHT22;3792;47.740;7.606;2023-09-19T04:48:54;18.10;99.90
7502;DHT22;3792;47.740;7.606;2023-09-19T04:51:22;18.10;99.90
7502;DHT22;3792;47.740;7.606;2023-09-19T04:53:49;18.10;99.90
7502;DHT22;3792;47.740;7.606;2023-09-19T04:56:16;18.10;99.90
7502;DHT22;3792;47.740;7.606;2023-09-19T04:58:43;18.00;99.90
7502;DHT22;3792;47.740;7.606;2023-09-19T05:01:10;18.00;99.90
7502;DHT22;3792;47.740;7.606;2023-09-19T05:03:38;18.00;99.90
7502;DHT22;3792;47.740;7.606;2023-09-19T05:06:05;18.00;99.90
7502;DHT22;3792;47.740;7.606;2023-09-19T05:08:33;17.90;99.90
7502;DHT22;3792;47.740;7.606;2023-09-19T05:11:02;17.80;99.90
7502;DHT22;3792;47.740;7.606;2023-09-19T05:13:29;17.80;99.90
7502;DHT22;3792;47.740;7.606;2023-09-19T05:16:00;17.80;99.90
7502;DHT22;3792;47.740;7.606;2023-09-19T05:18:28;17.60;99.90
7502;DHT22;3792;47.740;7.606;2023-09-19T05:20:55;17.50;99.90
7502;DHT22;3792;47.740;7.606;2023-09-19T05:23:22;17.50;99.90
7502;DHT22;3792;47.740;7.606;2023-09-19T05:25:51;17.40;99.90
7502;DHT22;3792;47.740;7.606;2023-09-19T05:28:18;17.40;99.90
7502;DHT22;3792;47.740;7.606;2023-09-19T05:30:45;17.40;99.90
7502;DHT22;3792;47.740;7.606;2023-09-19T05:33:13;17.50;99.90
7502;DHT22;3792;47.740;7.606;2023-09-19T05:35:40;17.60;99.90
7502;DHT22;3792;47.740;7.606;2023-09-19T05:38:07;17.70;99.90
7502;DHT22;3792;47.740;7.606;2023-09-19T05:40:37;17.70;99.90
7502;DHT22;3792;47.740;7.606;2023-09-19T05:43:09;17.70;99.90
7502;DHT22;3792;47.740;7.606;2023-09-19T05:45:36;17.70;99.90
7502;DHT22;3792;47.740;7.606;2023-09-19T05:48:08;17.70;99.90
7502;DHT22;3792;47.740;7.606;2023-09-19T05:50:37;17.70;99.90
7502;DHT22;3792;47.740;7.606;2023-09-19T05:53:04;17.80;99.90
7502;DHT22;3792;47.740;7.606;2023-09-19T05:55:31;17.80;99.90
7502;DHT22;3792;47.740;7.606;2023-09-19T05:57:58;17.70;99.90
7502;DHT22;3792;47.740;7.606;2023-09-19T06:00:27;17.70;99.90
7502;DHT22;3792;47.740;7.606;2023-09-19T06:02:58;17.70;99.90
7502;DHT22;3792;47.740;7.606;2023-09-19T06:05:26;17.80;99.90
7502;DHT22;3792;47.740;7.606;2023-09-19T06:07:53;17.80;99.90
7502;DHT22;3792;47.740;7.606;2023-09-19T06:10:20;17.80;99.90
7502;DHT22;3792;47.740;7.606;2023-09-19T06:12:49;17.90;99.90
7502;DHT22;3792;47.740;7.606;2023-09-19T06:15:17;17.90;99.90
7502;DHT22;3792;47.740;7.606;2023-09-19T06:17:48;18.00;99.90
7502;DHT22;3792;47.740;7.606;2023-09-19T06:20:16;18.00;99.90
7502;DHT22;3792;47.740;7.606;2023-09-19T06:22:45;18.10;99.90
7502;DHT22;3792;47.740;7.606;2023-09-19T06:25:14;18.10;99.90
7502;DHT22;3792;47.740;7.606;2023-09-19T06:27:45;18.10;99.90
7502;DHT22;3792;47.740;7.606;2023-09-19T06:30:12;18.20;99.90
7502;DHT22;3792;47.740;7.606;2023-09-19T06:32:39;18.20;99.90
7502;DHT22;3792;47.740;7.606;2023-09-19T06:35:11;18.30;99.90
7502;DHT22;3792;47.740;7.606;2023-09-19T06:37:38;18.40;99.90
7502;DHT22;3792;47.740;7.606;2023-09-19T06:40:07;18.30;99.90
7502;DHT22;3792;47.740;7.606;2023-09-19T06:42:39;18.30;99.90
7502;DHT22;3792;47.740;7.606;2023-09-19T06:45:08;18.40;99.90
7502;DHT22;3792;47.740;7.606;2023-09-19T06:47:37;18.40;99.90
7502;DHT22;3792;47.740;7.606;2023-09-19T06:50:04;18.40;99.90
7502;DHT22;3792;47.740;7.606;2023-09-19T06:52:36;18.40;99.90
7502;DHT22;3792;47.740;7.606;2023-09-19T06:55:03;18.40;99.90
7502;DHT22;3792;47.740;7.606;2023-09-19T06:57:32;18.50;99.90
7502;DHT22;3792;47.740;7.606;2023-09-19T06:59:59;18.60;99.90
7502;DHT22;3792;47.740;7.606;2023-09-19T07:02:27;18.70;99.90
7502;DHT22;3792;47.740;7.606;2023-09-19T07:04:54;18.60;99.90
7502;DHT22;3792;47.740;7.606;2023-09-19T07:07:21;18.60;99.90
7502;DHT22;3792;47.740;7.606;2023-09-19T07:09:49;18.60;99.90
7502;DHT22;3792;47.740;7.606;2023-09-19T07:12:16;18.60;99.90
7502;DHT22;3792;47.740;7.606;2023-09-19T07:14:45;18.60;99.90
7502;DHT22;3792;47.740;7.606;2023-09-19T07:17:12;18.60;99.90
7502;DHT22;3792;47.740;7.606;2023-09-19T07:19:44;18.60;99.90
7502;DHT22;3792;47.740;7.606;2023-09-19T07:22:13;18.60;99.90
7502;DHT22;3792;47.740;7.606;2023-09-19T07:24:40;18.70;99.90
7502;DHT22;3792;47.740;7.606;2023-09-19T07:27:09;18.70;99.90
7502;DHT22;3792;47.740;7.606;2023-09-19T07:29:36;18.80;99.90
7502;DHT22;3792;47.740;7.606;2023-09-19T07:32:05;18.90;99.90
7502;DHT22;3792;47.740;7.606;2023-09-19T07:34:34;19.10;99.90
7502;DHT22;3792;47.740;7.606;2023-09-19T07:37:01;19.20;99.90
7502;DHT22;3792;47.740;7.606;2023-09-19T07:39:29;19.30;99.90
7502;DHT22;3792;47.740;7.606;2023-09-19T07:41:56;19.20;99.90
7502;DHT22;3792;47.740;7.606;2023-09-19T07:44:25;19.00;99.90
7502;DHT22;3792;47.740;7.606;2023-09-19T07:46:52;19.00;99.90
7502;DHT22;3792;47.740;7.606;2023-09-19T07:49:20;19.00;99.90
7502;DHT22;3792;47.740;7.606;2023-09-19T07:51:47;18.90;99.90
7502;DHT22;3792;47.740;7.606;2023-09-19T07:54:14;19.00;99.90
7502;DHT22;3792;47.740;7.606;2023-09-19T07:56:42;19.30;99.90
7502;DHT22;3792;47.740;7.606;2023-09-19T07:59:11;19.50;99.90
7502;DHT22;3792;47.740;7.606;2023-09-19T08:01:40;19.50;99.90
7502;DHT22;3792;47.740;7.606;2023-09-19T08:04:09;19.60;99.90
7502;DHT22;3792;47.740;7.606;2023-09-19T08:06:37;19.90;99.90
7502;DHT22;3792;47.740;7.606;2023-09-19T08:09:05;20.00;99.90
7502;DHT22;3792;47.740;7.606;2023-09-19T08:11:36;20.30;99.90
7502;DHT22;3792;47.740;7.606;2023-09-19T08:14:03;20.50;99.90
7502;DHT22;3792;47.740;7.606;2023-09-19T08:16:31;20.60;99.90
7502;DHT22;3792;47.740;7.606;2023-09-19T08:19:00;20.60;99.90
7502;DHT22;3792;47.740;7.606;2023-09-19T08:21:27;20.60;99.90
7502;DHT22;3792;47.740;7.606;2023-09-19T08:23:55;20.70;99.90
7502;DHT22;3792;47.740;7.606;2023-09-19T08:26:22;20.90;99.90
7502;DHT22;3792;47.740;7.606;2023-09-19T08:28:50;21.10;99.90
7502;DHT22;3792;47.740;7.606;2023-09-19T08:31:18;21.30;99.90
7502;DHT22;3792;47.740;7.606;2023-09-19T08:33:46;21.20;99.90
7502;DHT22;3792;47.740;7.606;2023-09-19T08:36:18;20.80;99.90
7502;DHT22;3792;47.740;7.606;2023-09-19T08:38:45;20.60;99.90
7502;DHT22;3792;47.740;7.606;2023-09-19T08:41:12;20.40;99.90
7502;DHT22;3792;47.740;7.606;2023-09-19T08:43:39;20.40;99.90
7502;DHT22;3792;47.740;7.606;2023-09-19T08:46:10;20.30;99.90
7502;DHT22;3792;47.740;7.606;2023-09-19T08:48:42;20.20;99.90
7502;DHT22;3792;47.740;7.606;2023-09-19T08:51:21;20.20;99.90
7502;DHT22;3792;47.740;7.606;2023-09-19T08:53:54;20.20;99.90
7502;DHT22;3792;47.740;7.606;2023-09-19T08:56:26;20.30;99.90
7502;DHT22;3792;47.740;7.606;2023-09-19T08:59:00;20.50;99.90
7502;DHT22;3792;47.740;7.606;2023-09-19T09:01:28;20.70;99.90
7502;DHT22;3792;47.740;7.606;2023-09-19T09:03:56;20.60;99.90
7502;DHT22;3792;47.740;7.606;2023-09-19T09:06:25;20.70;99.90
7502;DHT22;3792;47.740;7.606;2023-09-19T09:08:54;20.90;99.90
7502;DHT22;3792;47.740;7.606;2023-09-19T09:11:21;21.00;99.90
7502;DHT22;3792;47.740;7.606;2023-09-19T09:13:50;21.10;99.90
7502;DHT22;3792;47.740;7.606;2023-09-19T09:16:17;21.30;99.90
7502;DHT22;3792;47.740;7.606;2023-09-19T09:18:44;21.40;99.90
7502;DHT22;3792;47.740;7.606;2023-09-19T09:21:12;21.20;99.90
7502;DHT22;3792;47.740;7.606;2023-09-19T09:23:41;21.10;99.90
7502;DHT22;3792;47.740;7.606;2023-09-19T09:26:08;21.30;99.90
7502;DHT22;3792;47.740;7.606;2023-09-19T09:28:36;21.60;99.90
7502;DHT22;3792;47.740;7.606;2023-09-19T09:31:22;21.70;99.90
7502;DHT22;3792;47.740;7.606;2023-09-19T09:33:53;21.70;99.90
7502;DHT22;3792;47.740;7.606;2023-09-19T09:36:34;21.70;99.90
7502;DHT22;3792;47.740;7.606;2023-09-19T09:39:04;21.60;99.90
7502;DHT22;3792;47.740;7.606;2023-09-19T09:41:43;21.70;99.90
7502;DHT22;3792;47.740;7.606;2023-09-19T09:44:15;21.60;99.90
7502;DHT22;3792;47.740;7.606;2023-09-19T09:46:46;21.60;99.90
7502;DHT22;3792;47.740;7.606;2023-09-19T09:49:31;21.80;99.90
7502;DHT22;3792;47.740;7.606;2023-09-19T09:52:00;21.90;99.90
7502;DHT22;3792;47.740;7.606;2023-09-19T09:54:33;22.00;99.90
7502;DHT22;3792;47.740;7.606;2023-09-19T09:57:04;22.00;99.90
7502;DHT22;3792;47.740;7.606;2023-09-19T09:59:54;21.90;99.90
7502;DHT22;3792;47.740;7.606;2023-09-19T10:02:26;21.80;99.90
7502;DHT22;3792;47.740;7.606;2023-09-19T10:04:58;21.70;99.90
7502;DHT22;3792;47.740;7.606;2023-09-19T10:07:35;21.40;99.90
7502;DHT22;3792;47.740;7.606;2023-09-19T10:10:06;21.20;99.90
7502;DHT22;3792;47.740;7.606;2023-09-19T10:12:44;21.30;99.90
7502;DHT22;3792;47.740;7.606;2023-09-19T10:15:16;21.80;99.90
7502;DHT22;3792;47.740;7.606;2023-09-19T10:17:47;22.00;99.90
7502;DHT22;3792;47.740;7.606;2023-09-19T10:20:15;22.00;99.90
7502;DHT22;3792;47.740;7.606;2023-09-19T10:23:00;22.00;99.90
7502;DHT22;3792;47.740;7.606;2023-09-19T10:25:30;21.90;99.90
7502;DHT22;3792;47.740;7.606;2023-09-19T10:27:57;21.80;99.90
7502;DHT22;3792;47.740;7.606;2023-09-19T10:30:29;21.90;99.90
7502;DHT22;3792;47.740;7.606;2023-09-19T10:33:01;21.90;99.90
7502;DHT22;3792;47.740;7.606;2023-09-19T10:35:29;22.00;99.90
7502;DHT22;3792;47.740;7.606;2023-09-19T10:38:00;22.30;99.90
7502;DHT22;3792;47.740;7.606;2023-09-19T10:40:30;22.70;99.90
7502;DHT22;3792;47.740;7.606;2023-09-19T10:43:06;23.20;99.90
7502;DHT22;3792;47.740;7.606;2023-09-19T10:45:35;23.30;99.90
7502;DHT22;3792;47.740;7.606;2023-09-19T10:48:05;23.30;99.90
7502;DHT22;3792;47.740;7.606;2023-09-19T10:50:36;22.90;99.90
7502;DHT22;3792;47.740;7.606;2023-09-19T10:53:08;22.70;99.90
7502;DHT22;3792;47.740;7.606;2023-09-19T10:55:39;22.60;99.90
7502;DHT22;3792;47.740;7.606;2023-09-19T10:58:07;22.40;99.90
7502;DHT22;3792;47.740;7.606;2023-09-19T11:01:01;22.20;99.90
7502;DHT22;3792;47.740;7.606;2023-09-19T11:03:35;22.00;99.90
7502;DHT22;3792;47.740;7.606;2023-09-19T11:06:11;21.90;99.90
7502;DHT22;3792;47.740;7.606;2023-09-19T11:08:59;21.80;99.90
7502;DHT22;3792;47.740;7.606;2023-09-19T11:11:53;21.90;99.90
7502;DHT22;3792;47.740;7.606;2023-09-19T11:14:42;21.90;99.90
7502;DHT22;3792;47.740;7.606;2023-09-19T11:17:40;22.20;99.90
7502;DHT22;3792;47.740;7.606;2023-09-19T11:20:23;22.60;99.90
7502;DHT22;3792;47.740;7.606;2023-09-19T11:23:20;22.60;99.90
7502;DHT22;3792;47.740;7.606;2023-09-19T11:25:50;22.40;99.90
7502;DHT22;3792;47.740;7.606;2023-09-19T11:28:33;22.30;99.90
7502;DHT22;3792;47.740;7.606;2023-09-19T11:34:43;21.90;99.90
7502;DHT22;3792;47.740;7.606;2023-09-19T11:40:36;22.40;99.90
7502;DHT22;3792;47.740;7.606;2023-09-19T11:43:28;23.10;99.90
7502;DHT22;3792;47.740;7.606;2023-09-19T11:46:07;23.80;99.90
7502;DHT22;3792;47.740;7.606;2023-09-19T11:48:35;24.40;99.90
7502;DHT22;3792;47.740;7.606;2023-09-19T11:51:17;24.60;99.90
7502;DHT22;3792;47.740;7.606;2023-09-19T11:53:52;25.00;99.90
7502;DHT22;3792;47.740;7.606;2023-09-19T11:56:20;25.40;99.90
7502;DHT22;3792;47.740;7.606;2023-09-19T11:58:51;25.70;99.80
7502;DHT22;3792;47.740;7.606;2023-09-19T12:01:27;26.00;99.60
7502;DHT22;3792;47.740;7.606;2023-09-19T12:03:56;26.30;99.00
7502;DHT22;3792;47.740;7.606;2023-09-19T12:06:25;26.60;99.60
7502;DHT22;3792;47.740;7.606;2023-09-19T12:08:52;26.70;97.50
7502;DHT22;3792;47.740;7.606;2023-09-19T12:11:22;26.40;97.40
7502;DHT22;3792;47.740;7.606;2023-09-19T12:13:50;26.40;97.40
7502;DHT22;3792;47.740;7.606;2023-09-19T12:16:20;26.30;97.20
7502;DHT22;3792;47.740;7.606;2023-09-19T12:18:50;26.60;97.30
7502;DHT22;3792;47.740;7.606;2023-09-19T12:21:27;26.70;96.60
7502;DHT22;3792;47.740;7.606;2023-09-19T12:24:04;26.40;96.50
7502;DHT22;3792;47.740;7.606;2023-09-19T12:26:41;26.30;96.30
7502;DHT22;3792;47.740;7.606;2023-09-19T12:29:16;26.30;96.70
7502;DHT22;3792;47.740;7.606;2023-09-19T12:31:51;26.40;96.50
7502;DHT22;3792;47.740;7.606;2023-09-19T12:34:23;26.40;96.50
7502;DHT22;3792;47.740;7.606;2023-09-19T12:37:04;26.50;96.50
7502;DHT22;3792;47.740;7.606;2023-09-19T12:39:40;26.50;95.60
7502;DHT22;3792;47.740;7.606;2023-09-19T12:42:15;26.50;95.60
7502;DHT22;3792;47.740;7.606;2023-09-19T12:44:44;26.90;95.70
7502;DHT22;3792;47.740;7.606;2023-09-19T12:47:13;27.10;94.80
7502;DHT22;3792;47.740;7.606;2023-09-19T12:50:09;26.60;94.40
7502;DHT22;3792;47.740;7.606;2023-09-19T12:52:41;25.80;95.40
7502;DHT22;3792;47.740;7.606;2023-09-19T12:55:19;25.40;96.90
7502;DHT22;3792;47.740;7.606;2023-09-19T12:57:59;25.40;96.40
7502;DHT22;3792;47.740;7.606;2023-09-19T13:00:34;25.30;97.00
7502;DHT22;3792;47.740;7.606;2023-09-19T13:03:17;25.70;97.00
7502;DHT22;3792;47.740;7.606;2023-09-19T13:05:56;26.30;96.10
7502;DHT22;3792;47.740;7.606;2023-09-19T13:08:25;26.40;95.10
7502;DHT22;3792;47.740;7.606;2023-09-19T13:11:12;26.50;95.00
7502;DHT22;3792;47.740;7.606;2023-09-19T13:13:44;26.10;94.60
7502;DHT22;3792;47.740;7.606;2023-09-19T13:16:14;25.70;95.60
7502;DHT22;3792;47.740;7.606;2023-09-19T13:18:46;25.70;95.20
7502;DHT22;3792;47.740;7.606;2023-09-19T13:21:28;25.70;94.70
7502;DHT22;3792;47.740;7.606;2023-09-19T13:24:19;26.00;94.80
7502;DHT22;3792;47.740;7.606;2023-09-19T13:26:47;26.40;94.40
7502;DHT22;3792;47.740;7.606;2023-09-19T13:29:14;26.70;94.30
7502;DHT22;3792;47.740;7.606;2023-09-19T13:31:46;26.90;93.30
7502;DHT22;3792;47.740;7.606;2023-09-19T13:34:13;27.00;93.30
7502;DHT22;3792;47.740;7.606;2023-09-19T13:36:43;27.00;92.70
7502;DHT22;3792;47.740;7.606;2023-09-19T13:39:10;27.10;92.70
7502;DHT22;3792;47.740;7.606;2023-09-19T13:41:38;27.10;92.40
7502;DHT22;3792;47.740;7.606;2023-09-19T13:44:06;27.20;92.80
7502;DHT22;3792;47.740;7.606;2023-09-19T13:46:34;27.20;92.30
7502;DHT22;3792;47.740;7.606;2023-09-19T13:49:01;27.20;91.70
7502;DHT22;3792;47.740;7.606;2023-09-19T13:51:29;27.20;91.90
7502;DHT22;3792;47.740;7.606;2023-09-19T13:53:58;26.90;91.50
7502;DHT22;3792;47.740;7.606;2023-09-19T13:56:26;26.70;91.70
7502;DHT22;3792;47.740;7.606;2023-09-19T13:58:56;27.00;91.90
7502;DHT22;3792;47.740;7.606;2023-09-19T14:01:23;27.30;91.80
7502;DHT22;3792;47.740;7.606;2023-09-19T14:03:52;27.60;91.80
7502;DHT22;3792;47.740;7.606;2023-09-19T14:06:22;27.40;90.70
7502;DHT22;3792;47.740;7.606;2023-09-19T14:08:49;27.60;90.80
7502;DHT22;3792;47.740;7.606;2023-09-19T14:11:18;27.80;90.80
7502;DHT22;3792;47.740;7.606;2023-09-19T14:13:45;27.90;90.50
7502;DHT22;3792;47.740;7.606;2023-09-19T14:16:15;27.90;90.00
7502;DHT22;3792;47.740;7.606;2023-09-19T14:18:44;27.70;89.30
7502;DHT22;3792;47.740;7.606;2023-09-19T14:21:11;27.70;89.50
7502;DHT22;3792;47.740;7.606;2023-09-19T14:23:40;27.50;90.20
7502;DHT22;3792;47.740;7.606;2023-09-19T14:26:09;27.30;89.90
7502;DHT22;3792;47.740;7.606;2023-09-19T14:28:37;27.00;89.50
7502;DHT22;3792;47.740;7.606;2023-09-19T14:31:06;26.60;89.10
7502;DHT22;3792;47.740;7.606;2023-09-19T14:33:33;26.30;89.90
7502;DHT22;3792;47.740;7.606;2023-09-19T14:36:02;26.20;90.20
7502;DHT22;3792;47.740;7.606;2023-09-19T14:38:32;26.50;89.70
7502;DHT22;3792;47.740;7.606;2023-09-19T14:41:00;26.70;89.10
7502;DHT22;3792;47.740;7.606;2023-09-19T14:43:44;26.80;89.90
7502;DHT22;3792;47.740;7.606;2023-09-19T14:46:11;27.00;88.70
7502;DHT22;3792;47.740;7.606;2023-09-19T14:48:40;27.10;89.40
7502;DHT22;3792;47.740;7.606;2023-09-19T14:51:08;27.40;89.90
7502;DHT22;3792;47.740;7.606;2023-09-19T14:53:35;27.80;90.30
7502;DHT22;3792;47.740;7.606;2023-09-19T14:56:04;27.90;89.80
7502;DHT22;3792;47.740;7.606;2023-09-19T14:58:33;27.90;88.00
7502;DHT22;3792;47.740;7.606;2023-09-19T15:01:06;28.00;87.50
7502;DHT22;3792;47.740;7.606;2023-09-19T15:03:34;27.80;86.70
7502;DHT22;3792;47.740;7.606;2023-09-19T15:06:02;27.70;88.70
7502;DHT22;3792;47.740;7.606;2023-09-19T15:08:30;27.60;89.00
7502;DHT22;3792;47.740;7.606;2023-09-19T15:10:57;27.60;87.80
7502;DHT22;3792;47.740;7.606;2023-09-19T15:13:29;27.30;88.60
7502;DHT22;3792;47.740;7.606;2023-09-19T15:15:59;27.30;89.10
7502;DHT22;3792;47.740;7.606;2023-09-19T15:18:28;27.50;90.10
7502;DHT22;3792;47.740;7.606;2023-09-19T15:20:56;27.60;90.10
7502;DHT22;3792;47.740;7.606;2023-09-19T15:23:23;27.60;89.70
7502;DHT22;3792;47.740;7.606;2023-09-19T15:25:50;27.70;88.60
7502;DHT22;3792;47.740;7.606;2023-09-19T15:28:19;27.50;88.40
7502;DHT22;3792;47.740;7.606;2023-09-19T15:30:48;27.60;90.00
7502;DHT22;3792;47.740;7.606;2023-09-19T15:33:15;27.50;90.00
7502;DHT22;3792;47.740;7.606;2023-09-19T15:35:44;27.60;88.60
7502;DHT22;3792;47.740;7.606;2023-09-19T15:38:12;27.30;88.20
7502;DHT22;3792;47.740;7.606;2023-09-19T15:40:46;27.30;89.70
7502;DHT22;3792;47.740;7.606;2023-09-19T15:43:13;27.40;90.10
7502;DHT22;3792;47.740;7.606;2023-09-19T15:45:40;27.50;90.30
7502;DHT22;3792;47.740;7.606;2023-09-19T15:48:07;27.50;89.80
7502;DHT22;3792;47.740;7.606;2023-09-19T15:50:34;27.30;89.30
7502;DHT22;3792;47.740;7.606;2023-09-19T15:53:04;27.30;90.20
7502;DHT22;3792;47.740;7.606;2023-09-19T15:55:31;27.10;90.40
7502;DHT22;3792;47.740;7.606;2023-09-19T15:57:58;26.90;90.30
7502;DHT22;3792;47.740;7.606;2023-09-19T16:00:25;26.90;91.00
7502;DHT22;3792;47.740;7.606;2023-09-19T16:02:53;27.00;91.10
7502;DHT22;3792;47.740;7.606;2023-09-19T16:05:20;27.00;90.70
7502;DHT22;3792;47.740;7.606;2023-09-19T16:07:47;27.00;90.80
7502;DHT22;3792;47.740;7.606;2023-09-19T16:10:16;26.90;91.00
7502;DHT22;3792;47.740;7.606;2023-09-19T16:12:43;26.80;91.80
7502;DHT22;3792;47.740;7.606;2023-09-19T16:15:10;26.90;91.70
7502;DHT22;3792;47.740;7.606;2023-09-19T16:17:39;26.80;91.40
7502;DHT22;3792;47.740;7.606;2023-09-19T16:20:07;26.70;91.00
7502;DHT22;3792;47.740;7.606;2023-09-19T16:22:38;26.70;91.30
7502;DHT22;3792;47.740;7.606;2023-09-19T16:25:06;26.80;91.80
7502;DHT22;3792;47.740;7.606;2023-09-19T16:27:38;26.80;91.90
7502;DHT22;3792;47.740;7.606;2023-09-19T16:30:07;26.60;90.90